sensor_id;sensor_type;location;lat;lon;timestamp;P1;durP1;ratioP1;P2;durP2;ratioP2
2299;SDS011;1158;48.750;9.078;2023-12-20T00:01:02;5.10;;;1.20;;
2299;SDS011;1158;48.750;9.078;2023-12-20T00:03:29;3.03;;;1.80;;
2299;SDS011;1158;48.750;9.078;2023-12-20T00:05:56;2.67;;;1.93;;
2299;SDS011;1158;48.750;9.078;2023-12-20T00:08:23;2.30;;;1.53;;
2299;SDS011;1158;48.750;9.078;2023-12-20T00:10:52;2.50;;;1.90;;
2299;SDS011;1158;48.750;9.078;2023-12-20T00:13:19;2.07;;;1.53;;
2299;SDS011;1158;48.750;9.078;2023-12-20T00:15:46;2.80;;;1.67;;
2299;SDS011;1158;48.750;9.078;2023-12-20T00:18:13;5.60;;;2.03;;
2299;SDS011;1158;48.750;9.078;2023-12-20T00:20:40;4.07;;;1.60;;
2299;SDS011;1158;48.750;9.078;2023-12-20T00:23:07;4.50;;;1.90;;
2299;SDS011;1158;48.750;9.078;2023-12-20T00:25:34;3.20;;;1.93;;
2299;SDS011;1158;48.750;9.078;2023-12-20T00:28:02;3.60;;;1.93;;
2299;SDS011;1158;48.750;9.078;2023-12-20T00:30:29;1.90;;;1.40;;
2299;SDS011;1158;48.750;9.078;2023-12-20T00:32:56;2.23;;;1.40;;
2299;SDS011;1158;48.750;9.078;2023-12-20T00:35:24;4.37;;;1.77;;
2299;SDS011;1158;48.750;9.078;2023-12-20T00:37:51;2.30;;;1.43;;
2299;SDS011;1158;48.750;9.078;2023-12-20T00:40:18;2.50;;;1.43;;
2299;SDS011;1158;48.750;9.078;2023-12-20T00:42:45;2.47;;;1.70;;
2299;SDS011;1158;48.750;9.078;2023-12-20T00:45:14;2.90;;;2.03;;
2299;SDS011;1158;48.750;9.078;2023-12-20T00:47:41;3.70;;;1.50;;
2299;SDS011;1158;48.750;9.078;2023-12-20T00:50:08;2.83;;;1.60;;
2299;SDS011;1158;48.750;9.078;2023-12-20T00:52:36;2.20;;;1.50;;
2299;SDS011;1158;48.750;9.078;2023-12-20T00:55:03;3.17;;;1.90;;
2299;SDS011;1158;48.750;9.078;2023-12-20T00:57:30;5.10;;;1.70;;
2299;SDS011;1158;48.750;9.078;2023-12-20T00:59:58;2.53;;;1.50;;
2299;SDS011;1158;48.750;9.078;2023-12-20T01:02:26;4.53;;;1.80;;
2299;SDS011;1158;48.750;9.078;2023-12-20T01:04:54;3.67;;;1.80;;
2299;SDS011;1158;48.750;9.078;2023-12-20T01:07:21;3.53;;;1.80;;
2299;SDS011;1158;48.750;9.078;2023-12-20T01:09:48;5.57;;;1.70;;
2299;SDS011;1158;48.750;9.078;2023-12-20T01:12:15;2.50;;;1.50;;
2299;SDS011;1158;48.750;9.078;2023-12-20T01:14:42;2.87;;;1.63;;
2299;SDS011;1158;48.750;9.078;2023-12-20T01:17:09;2.80;;;1.43;;
2299;SDS011;1158;48.750;9.078;2023-12-20T01:19:37;3.00;;;1.50;;
2299;SDS011;1158;48.750;9.078;2023-12-20T01:22:04;3.30;;;1.73;;
2299;SDS011;1158;48.750;9.078;2023-12-20T01:24:31;2.47;;;1.50;;
2299;SDS011;1158;48.750;9.078;2023-12-20T01:26:58;2.83;;;2.00;;
2299;SDS011;1158;48.750;9.078;2023-12-20T01:29:26;3.20;;;2.10;;
2299;SDS011;1158;48.750;9.078;2023-12-20T01:31:53;2.73;;;1.57;;
2299;SDS011;1158;48.750;9.078;2023-12-20T01:34:20;2.47;;;1.60;;
2299;SDS011;1158;48.750;9.078;2023-12-20T01:36:48;2.37;;;1.57;;
2299;SDS011;1158;48.750;9.078;2023-12-20T01:39:16;3.67;;;1.87;;
2299;SDS011;1158;48.750;9.078;2023-12-20T01:41:43;2.90;;;1.50;;
2299;SDS011;1158;48.750;9.078;2023-12-20T01:44:11;5.47;;;2.17;;
2299;SDS011;1158;48.750;9.078;2023-12-20T01:46:38;4.67;;;2.20;;
2299;SDS011;1158;48.750;9.078;2023-12-20T01:49:05;6.13;;;1.90;;
2299;SDS011;1158;48.750;9.078;2023-12-20T01:51:33;4.07;;;1.90;;
2299;SDS011;1158;48.750;9.078;2023-12-20T01:54:02;2.93;;;1.60;;
2299;SDS011;1158;48.750;9.078;2023-12-20T01:56:29;3.23;;;1.77;;
2299;SDS011;1158;48.750;9.078;2023-12-20T01:58:57;2.70;;;1.70;;
2299;SDS011;1158;48.750;9.078;2023-12-20T02:01:24;2.90;;;1.80;;
2299;SDS011;1158;48.750;9.078;2023-12-20T02:03:53;4.30;;;2.17;;
2299;SDS011;1158;48.750;9.078;2023-12-20T02:06:20;7.20;;;1.80;;
2299;SDS011;1158;48.750;9.078;2023-12-20T02:08:48;2.67;;;1.90;;
2299;SDS011;1158;48.750;9.078;2023-12-20T02:11:17;2.37;;;1.53;;
2299;SDS011;1158;48.750;9.078;2023-12-20T02:13:44;2.43;;;1.50;;
2299;SDS011;1158;48.750;9.078;2023-12-20T02:16:11;2.30;;;1.43;;
2299;SDS011;1158;48.750;9.078;2023-12-20T02:18:38;2.40;;;1.50;;
2299;SDS011;1158;48.750;9.078;2023-12-20T02:21:05;3.20;;;1.47;;
2299;SDS011;1158;48.750;9.078;2023-12-20T02:23:34;2.53;;;1.33;;
2299;SDS011;1158;48.750;9.078;2023-12-20T02:26:01;2.67;;;1.30;;
2299;SDS011;1158;48.750;9.078;2023-12-20T02:28:29;2.57;;;1.40;;
2299;SDS011;1158;48.750;9.078;2023-12-20T02:30:56;2.33;;;1.40;;
2299;SDS011;1158;48.750;9.078;2023-12-20T02:33:23;1.97;;;1.30;;
2299;SDS011;1158;48.750;9.078;2023-12-20T02:35:50;1.70;;;1.07;;
2299;SDS011;1158;48.750;9.078;2023-12-20T02:38:17;1.83;;;1.03;;
2299;SDS011;1158;48.750;9.078;2023-12-20T02:40:46;2.10;;;1.20;;
2299;SDS011;1158;48.750;9.078;2023-12-20T02:43:13;2.30;;;1.33;;
2299;SDS011;1158;48.750;9.078;2023-12-20T02:45:40;3.20;;;1.33;;
2299;SDS011;1158;48.750;9.078;2023-12-20T02:48:07;1.80;;;1.00;;
2299;SDS011;1158;48.750;9.078;2023-12-20T02:50:34;1.83;;;1.07;;
2299;SDS011;1158;48.750;9.078;2023-12-20T02:53:01;3.97;;;1.47;;
2299;SDS011;1158;48.750;9.078;2023-12-20T02:55:28;2.67;;;1.10;;
2299;SDS011;1158;48.750;9.078;2023-12-20T02:57:56;1.93;;;1.20;;
2299;SDS011;1158;48.750;9.078;2023-12-20T03:00:24;2.57;;;1.27;;
2299;SDS011;1158;48.750;9.078;2023-12-20T03:02:51;2.73;;;1.53;;
2299;SDS011;1158;48.750;9.078;2023-12-20T03:05:18;2.20;;;1.20;;
2299;SDS011;1158;48.750;9.078;2023-12-20T03:07:45;2.43;;;1.10;;
2299;SDS011;1158;48.750;9.078;2023-12-20T03:10:12;1.87;;;1.10;;
2299;SDS011;1158;48.750;9.078;2023-12-20T03:12:39;1.53;;;0.90;;
2299;SDS011;1158;48.750;9.078;2023-12-20T03:15:08;1.73;;;0.97;;
2299;SDS011;1158;48.750;9.078;2023-12-20T03:17:36;3.27;;;1.07;;
2299;SDS011;1158;48.750;9.078;2023-12-20T03:20:03;2.87;;;1.20;;
2299;SDS011;1158;48.750;9.078;2023-12-20T03:22:30;1.87;;;0.93;;
2299;SDS011;1158;48.750;9.078;2023-12-20T03:24:57;1.60;;;0.70;;
2299;SDS011;1158;48.750;9.078;2023-12-20T03:27:24;1.30;;;0.70;;
2299;SDS011;1158;48.750;9.078;2023-12-20T03:29:51;1.33;;;0.63;;
2299;SDS011;1158;48.750;9.078;2023-12-20T03:32:20;1.10;;;0.60;;
2299;SDS011;1158;48.750;9.078;2023-12-20T03:34:47;2.27;;;0.63;;
2299;SDS011;1158;48.750;9.078;2023-12-20T03:37:14;1.17;;;0.63;;
2299;SDS011;1158;48.750;9.078;2023-12-20T03:39:41;1.93;;;0.70;;
2299;SDS011;1158;48.750;9.078;2023-12-20T03:42:08;1.87;;;0.60;;
2299;SDS011;1158;48.750;9.078;2023-12-20T03:44:38;1.63;;;0.90;;
2299;SDS011;1158;48.750;9.078;2023-12-20T03:47:05;3.73;;;0.60;;
2299;SDS011;1158;48.750;9.078;2023-12-20T03:49:33;1.30;;;0.60;;
2299;SDS011;1158;48.750;9.078;2023-12-20T03:52:02;1.43;;;0.70;;
2299;SDS011;1158;48.750;9.078;2023-12-20T03:54:29;1.33;;;0.63;;
2299;SDS011;1158;48.750;9.078;2023-12-20T03:56:56;1.87;;;0.67;;
2299;SDS011;1158;48.750;9.078;2023-12-20T03:59:23;1.50;;;0.67;;
2299;SDS011;1158;48.750;9.078;2023-12-20T04:01:50;1.40;;;0.60;;
2299;SDS011;1158;48.750;9.078;2023-12-20T04:04:17;1.10;;;0.60;;
2299;SDS011;1158;48.750;9.078;2023-12-20T04:06:45;1.20;;;0.50;;
2299;SDS011;1158;48.750;9.078;2023-12-20T04:09:13;1.20;;;0.50;;
2299;SDS011;1158;48.750;9.078;2023-12-20T04:11:40;1.37;;;0.60;;
2299;SDS011;1158;48.750;9.078;2023-12-20T04:14:07;2.40;;;0.60;;
2299;SDS011;1158;48.750;9.078;2023-12-20T04:16:35;1.07;;;0.60;;
2299;SDS011;1158;48.750;9.078;2023-12-20T04:19:02;1.10;;;0.60;;
2299;SDS011;1158;48.750;9.078;2023-12-20T04:21:29;2.20;;;0.60;;
2299;SDS011;1158;48.750;9.078;2023-12-20T04:23:57;4.57;;;0.60;;
2299;SDS011;1158;48.750;9.078;2023-12-20T04:26:24;1.20;;;0.60;;
2299;SDS011;1158;48.750;9.078;2023-12-20T04:28:51;1.00;;;0.50;;
2299;SDS011;1158;48.750;9.078;2023-12-20T04:31:19;1.50;;;0.60;;
2299;SDS011;1158;48.750;9.078;2023-12-20T04:33:46;1.10;;;0.60;;
2299;SDS011;1158;48.750;9.078;2023-12-20T04:36:13;1.40;;;0.63;;
2299;SDS011;1158;48.750;9.078;2023-12-20T04:38:40;1.10;;;0.60;;
2299;SDS011;1158;48.750;9.078;2023-12-20T04:41:08;1.73;;;0.60;;
2299;SDS011;1158;48.750;9.078;2023-12-20T04:43:35;2.03;;;0.50;;
2299;SDS011;1158;48.750;9.078;2023-12-20T04:46:02;2.23;;;0.70;;
2299;SDS011;1158;48.750;9.078;2023-12-20T04:48:29;1.60;;;0.70;;
2299;SDS011;1158;48.750;9.078;2023-12-20T04:50:56;2.67;;;0.73;;
2299;SDS011;1158;48.750;9.078;2023-12-20T04:53:24;1.20;;;0.60;;
2299;SDS011;1158;48.750;9.078;2023-12-20T04:55:51;4.90;;;0.77;;
2299;SDS011;1158;48.750;9.078;2023-12-20T04:58:19;1.60;;;0.67;;
2299;SDS011;1158;48.750;9.078;2023-12-20T05:00:46;1.00;;;0.53;;
2299;SDS011;1158;48.750;9.078;2023-12-20T05:03:14;2.03;;;0.70;;
2299;SDS011;1158;48.750;9.078;2023-12-20T05:05:41;1.20;;;0.60;;
2299;SDS011;1158;48.750;9.078;2023-12-20T05:08:08;1.53;;;0.60;;
2299;SDS011;1158;48.750;9.078;2023-12-20T05:10:35;1.07;;;0.50;;
2299;SDS011;1158;48.750;9.078;2023-12-20T05:13:02;3.10;;;0.87;;
2299;SDS011;1158;48.750;9.078;2023-12-20T05:15:31;1.20;;;0.67;;
2299;SDS011;1158;48.750;9.078;2023-12-20T05:17:58;1.30;;;0.70;;
2299;SDS011;1158;48.750;9.078;2023-12-20T05:20:25;1.20;;;0.60;;
2299;SDS011;1158;48.750;9.078;2023-12-20T05:22:52;9.07;;;0.70;;
2299;SDS011;1158;48.750;9.078;2023-12-20T05:25:19;1.20;;;0.60;;
2299;SDS011;1158;48.750;9.078;2023-12-20T05:27:46;1.40;;;0.60;;
2299;SDS011;1158;48.750;9.078;2023-12-20T05:30:13;1.10;;;0.60;;
2299;SDS011;1158;48.750;9.078;2023-12-20T05:32:41;1.10;;;0.60;;
2299;SDS011;1158;48.750;9.078;2023-12-20T05:35:08;2.50;;;0.60;;
2299;SDS011;1158;48.750;9.078;2023-12-20T05:37:36;1.40;;;0.70;;
2299;SDS011;1158;48.750;9.078;2023-12-20T05:40:03;1.10;;;0.60;;
2299;SDS011;1158;48.750;9.078;2023-12-20T05:42:30;1.43;;;0.70;;
2299;SDS011;1158;48.750;9.078;2023-12-20T05:44:57;1.83;;;0.70;;
2299;SDS011;1158;48.750;9.078;2023-12-20T05:47:24;1.87;;;0.63;;
2299;SDS011;1158;48.750;9.078;2023-12-20T05:49:53;2.23;;;0.70;;
2299;SDS011;1158;48.750;9.078;2023-12-20T05:52:20;1.43;;;0.70;;
2299;SDS011;1158;48.750;9.078;2023-12-20T05:54:47;1.20;;;0.70;;
2299;SDS011;1158;48.750;9.078;2023-12-20T05:57:14;3.97;;;0.80;;
2299;SDS011;1158;48.750;9.078;2023-12-20T05:59:41;2.47;;;0.63;;
2299;SDS011;1158;48.750;9.078;2023-12-20T06:02:08;2.47;;;0.90;;
2299;SDS011;1158;48.750;9.078;2023-12-20T06:04:35;1.17;;;0.63;;
2299;SDS011;1158;48.750;9.078;2023-12-20T06:07:04;2.03;;;0.70;;
2299;SDS011;1158;48.750;9.078;2023-12-20T06:09:31;2.37;;;0.90;;
2299;SDS011;1158;48.750;9.078;2023-12-20T06:11:58;1.30;;;0.60;;
2299;SDS011;1158;48.750;9.078;2023-12-20T06:14:25;2.03;;;0.90;;
2299;SDS011;1158;48.750;9.078;2023-12-20T06:16:52;2.27;;;0.87;;
2299;SDS011;1158;48.750;9.078;2023-12-20T06:19:19;4.03;;;0.70;;
2299;SDS011;1158;48.750;9.078;2023-12-20T06:21:46;1.20;;;0.70;;
2299;SDS011;1158;48.750;9.078;2023-12-20T06:24:14;1.93;;;0.70;;
2299;SDS011;1158;48.750;9.078;2023-12-20T06:26:42;1.50;;;0.80;;
2299;SDS011;1158;48.750;9.078;2023-12-20T06:29:09;1.30;;;0.70;;
2299;SDS011;1158;48.750;9.078;2023-12-20T06:31:36;1.57;;;0.90;;
2299;SDS011;1158;48.750;9.078;2023-12-20T06:34:03;2.67;;;1.00;;
2299;SDS011;1158;48.750;9.078;2023-12-20T06:36:30;2.17;;;1.13;;
2299;SDS011;1158;48.750;9.078;2023-12-20T06:38:57;3.10;;;1.20;;
2299;SDS011;1158;48.750;9.078;2023-12-20T06:41:25;1.70;;;1.13;;
2299;SDS011;1158;48.750;9.078;2023-12-20T06:43:52;2.50;;;1.20;;
2299;SDS011;1158;48.750;9.078;2023-12-20T06:46:19;2.80;;;1.23;;
2299;SDS011;1158;48.750;9.078;2023-12-20T06:48:46;3.60;;;1.13;;
2299;SDS011;1158;48.750;9.078;2023-12-20T06:51:14;4.93;;;1.37;;
2299;SDS011;1158;48.750;9.078;2023-12-20T06:53:41;6.23;;;1.00;;
2299;SDS011;1158;48.750;9.078;2023-12-20T06:56:09;2.13;;;1.47;;
2299;SDS011;1158;48.750;9.078;2023-12-20T06:58:38;3.97;;;1.10;;
2299;SDS011;1158;48.750;9.078;2023-12-20T07:01:05;3.10;;;1.07;;
2299;SDS011;1158;48.750;9.078;2023-12-20T07:03:32;1.90;;;0.90;;
2299;SDS011;1158;48.750;9.078;2023-12-20T07:05:59;2.03;;;1.00;;
2299;SDS011;1158;48.750;9.078;2023-12-20T07:08:26;2.33;;;1.30;;
2299;SDS011;1158;48.750;9.078;2023-12-20T07:10:53;1.73;;;1.00;;
2299;SDS011;1158;48.750;9.078;2023-12-20T07:13:20;1.80;;;1.10;;
2299;SDS011;1158;48.750;9.078;2023-12-20T07:15:49;2.30;;;1.10;;
2299;SDS011;1158;48.750;9.078;2023-12-20T07:18:16;3.27;;;1.40;;
2299;SDS011;1158;48.750;9.078;2023-12-20T07:20:43;2.03;;;1.10;;
2299;SDS011;1158;48.750;9.078;2023-12-20T07:23:10;1.93;;;1.13;;
2299;SDS011;1158;48.750;9.078;2023-12-20T07:25:37;2.47;;;1.40;;
2299;SDS011;1158;48.750;9.078;2023-12-20T07:28:05;3.67;;;2.27;;
2299;SDS011;1158;48.750;9.078;2023-12-20T07:30:32;2.90;;;2.20;;
2299;SDS011;1158;48.750;9.078;2023-12-20T07:33:00;4.67;;;2.50;;
2299;SDS011;1158;48.750;9.078;2023-12-20T07:35:28;4.40;;;2.87;;
2299;SDS011;1158;48.750;9.078;2023-12-20T07:37:55;6.83;;;3.40;;
2299;SDS011;1158;48.750;9.078;2023-12-20T07:40:22;5.83;;;3.50;;
2299;SDS011;1158;48.750;9.078;2023-12-20T07:42:49;8.80;;;3.80;;
2299;SDS011;1158;48.750;9.078;2023-12-20T07:45:16;6.73;;;4.80;;
2299;SDS011;1158;48.750;9.078;2023-12-20T07:47:43;7.47;;;4.10;;
2299;SDS011;1158;48.750;9.078;2023-12-20T07:50:12;7.30;;;4.27;;
2299;SDS011;1158;48.750;9.078;2023-12-20T07:52:39;9.63;;;4.57;;
2299;SDS011;1158;48.750;9.078;2023-12-20T07:55:06;6.33;;;3.90;;
2299;SDS011;1158;48.750;9.078;2023-12-20T07:57:34;6.53;;;4.30;;
2299;SDS011;1158;48.750;9.078;2023-12-20T08:00:01;8.47;;;4.60;;
2299;SDS011;1158;48.750;9.078;2023-12-20T08:02:28;9.50;;;4.67;;
2299;SDS011;1158;48.750;9.078;2023-12-20T08:04:55;8.57;;;4.90;;
2299;SDS011;1158;48.750;9.078;2023-12-20T08:07:24;10.77;;;5.17;;
2299;SDS011;1158;48.750;9.078;2023-12-20T08:09:51;7.37;;;4.70;;
2299;SDS011;1158;48.750;9.078;2023-12-20T08:12:19;10.10;;;4.30;;
2299;SDS011;1158;48.750;9.078;2023-12-20T08:14:47;11.50;;;5.20;;
2299;SDS011;1158;48.750;9.078;2023-12-20T08:17:14;7.47;;;4.73;;
2299;SDS011;1158;48.750;9.078;2023-12-20T08:19:44;7.47;;;4.67;;
2299;SDS011;1158;48.750;9.078;2023-12-20T08:22:11;9.40;;;4.03;;
2299;SDS011;1158;48.750;9.078;2023-12-20T08:24:39;9.13;;;5.20;;
2299;SDS011;1158;48.750;9.078;2023-12-20T08:27:06;6.50;;;4.30;;
2299;SDS011;1158;48.750;9.078;2023-12-20T08:29:34;8.93;;;5.10;;
2299;SDS011;1158;48.750;9.078;2023-12-20T08:32:01;7.90;;;4.40;;
2299;SDS011;1158;48.750;9.078;2023-12-20T08:34:28;9.17;;;5.10;;
2299;SDS011;1158;48.750;9.078;2023-12-20T08:36:56;6.90;;;5.00;;
2299;SDS011;1158;48.750;9.078;2023-12-20T08:39:23;8.97;;;4.10;;
2299;SDS011;1158;48.750;9.078;2023-12-20T08:41:51;6.90;;;4.43;;
2299;SDS011;1158;48.750;9.078;2023-12-20T08:44:18;7.80;;;4.17;;
2299;SDS011;1158;48.750;9.078;2023-12-20T08:46:47;8.43;;;4.83;;
2299;SDS011;1158;48.750;9.078;2023-12-20T08:49:14;9.90;;;4.80;;
2299;SDS011;1158;48.750;9.078;2023-12-20T08:51:42;6.20;;;4.07;;
2299;SDS011;1158;48.750;9.078;2023-12-20T08:54:09;9.23;;;4.73;;
2299;SDS011;1158;48.750;9.078;2023-12-20T08:56:38;5.90;;;4.40;;
2299;SDS011;1158;48.750;9.078;2023-12-20T08:59:06;7.77;;;4.67;;
2299;SDS011;1158;48.750;9.078;2023-12-20T09:01:34;8.50;;;5.50;;
2299;SDS011;1158;48.750;9.078;2023-12-20T09:04:01;10.63;;;5.50;;
2299;SDS011;1158;48.750;9.078;2023-12-20T09:06:28;6.97;;;4.47;;
2299;SDS011;1158;48.750;9.078;2023-12-20T09:08:55;7.90;;;4.27;;
2299;SDS011;1158;48.750;9.078;2023-12-20T09:11:22;5.93;;;3.47;;
2299;SDS011;1158;48.750;9.078;2023-12-20T09:13:49;4.03;;;3.10;;
2299;SDS011;1158;48.750;9.078;2023-12-20T09:16:18;8.50;;;2.53;;
2299;SDS011;1158;48.750;9.078;2023-12-20T09:18:45;4.37;;;2.60;;
2299;SDS011;1158;48.750;9.078;2023-12-20T09:21:12;5.20;;;2.00;;
2299;SDS011;1158;48.750;9.078;2023-12-20T09:23:39;3.27;;;2.10;;
2299;SDS011;1158;48.750;9.078;2023-12-20T09:26:06;8.37;;;2.30;;
2299;SDS011;1158;48.750;9.078;2023-12-20T09:28:33;4.30;;;2.00;;
2299;SDS011;1158;48.750;9.078;2023-12-20T09:31:02;6.53;;;2.13;;
2299;SDS011;1158;48.750;9.078;2023-12-20T09:33:31;7.53;;;2.00;;
2299;SDS011;1158;48.750;9.078;2023-12-20T09:35:58;8.60;;;1.70;;
2299;SDS011;1158;48.750;9.078;2023-12-20T09:38:25;5.30;;;1.73;;
2299;SDS011;1158;48.750;9.078;2023-12-20T09:40:52;5.37;;;2.07;;
2299;SDS011;1158;48.750;9.078;2023-12-20T09:43:20;5.10;;;1.70;;
2299;SDS011;1158;48.750;9.078;2023-12-20T09:45:49;4.70;;;1.80;;
2299;SDS011;1158;48.750;9.078;2023-12-20T09:48:19;5.63;;;1.90;;
2299;SDS011;1158;48.750;9.078;2023-12-20T09:50:48;4.93;;;1.83;;
2299;SDS011;1158;48.750;9.078;2023-12-20T09:53:15;7.20;;;2.03;;
2299;SDS011;1158;48.750;9.078;2023-12-20T09:55:42;7.47;;;2.10;;
2299;SDS011;1158;48.750;9.078;2023-12-20T09:58:09;3.80;;;1.80;;
2299;SDS011;1158;48.750;9.078;2023-12-20T10:00:36;5.67;;;1.80;;
2299;SDS011;1158;48.750;9.078;2023-12-20T10:03:04;3.70;;;1.73;;
2299;SDS011;1158;48.750;9.078;2023-12-20T10:05:33;6.73;;;1.50;;
2299;SDS011;1158;48.750;9.078;2023-12-20T10:08:02;5.00;;;1.60;;
2299;SDS011;1158;48.750;9.078;2023-12-20T10:10:29;3.80;;;1.47;;
2299;SDS011;1158;48.750;9.078;2023-12-20T10:15:59;4.73;;;1.53;;
2299;SDS011;1158;48.750;9.078;2023-12-20T10:18:28;4.40;;;1.50;;
2299;SDS011;1158;48.750;9.078;2023-12-20T10:20:56;2.87;;;1.60;;
2299;SDS011;1158;48.750;9.078;2023-12-20T10:23:24;5.00;;;1.87;;
2299;SDS011;1158;48.750;9.078;2023-12-20T10:25:55;4.83;;;2.03;;
2299;SDS011;1158;48.750;9.078;2023-12-20T10:28:23;8.40;;;2.13;;
2299;SDS011;1158;48.750;9.078;2023-12-20T10:30:52;5.73;;;1.53;;
2299;SDS011;1158;48.750;9.078;2023-12-20T10:33:23;9.77;;;2.17;;
2299;SDS011;1158;48.750;9.078;2023-12-20T10:35:51;3.40;;;1.90;;
2299;SDS011;1158;48.750;9.078;2023-12-20T10:38:19;3.87;;;1.80;;
2299;SDS011;1158;48.750;9.078;2023-12-20T10:40:47;4.23;;;1.80;;
2299;SDS011;1158;48.750;9.078;2023-12-20T10:43:14;5.33;;;1.83;;
2299;SDS011;1158;48.750;9.078;2023-12-20T10:45:42;5.80;;;2.63;;
2299;SDS011;1158;48.750;9.078;2023-12-20T10:48:09;6.07;;;2.37;;
2299;SDS011;1158;48.750;9.078;2023-12-20T10:50:37;4.40;;;1.73;;
2299;SDS011;1158;48.750;9.078;2023-12-20T10:53:05;4.30;;;2.17;;
2299;SDS011;1158;48.750;9.078;2023-12-20T10:55:33;2.63;;;1.60;;
2299;SDS011;1158;48.750;9.078;2023-12-20T10:58:02;4.97;;;2.20;;
2299;SDS011;1158;48.750;9.078;2023-12-20T11:00:31;7.33;;;1.83;;
2299;SDS011;1158;48.750;9.078;2023-12-20T11:02:59;2.80;;;1.77;;
2299;SDS011;1158;48.750;9.078;2023-12-20T11:05:30;3.70;;;1.70;;
2299;SDS011;1158;48.750;9.078;2023-12-20T11:08:01;5.00;;;1.97;;
2299;SDS011;1158;48.750;9.078;2023-12-20T11:10:29;8.27;;;2.60;;
2299;SDS011;1158;48.750;9.078;2023-12-20T11:12:58;5.23;;;2.00;;
2299;SDS011;1158;48.750;9.078;2023-12-20T11:15:29;8.67;;;2.53;;
2299;SDS011;1158;48.750;9.078;2023-12-20T11:17:57;7.73;;;1.80;;
2299;SDS011;1158;48.750;9.078;2023-12-20T11:20:34;7.83;;;1.70;;
2299;SDS011;1158;48.750;9.078;2023-12-20T11:23:02;3.30;;;1.50;;
2299;SDS011;1158;48.750;9.078;2023-12-20T11:25:29;4.30;;;1.57;;
2299;SDS011;1158;48.750;9.078;2023-12-20T11:28:09;9.70;;;2.50;;
2299;SDS011;1158;48.750;9.078;2023-12-20T11:30:47;10.73;;;1.97;;
2299;SDS011;1158;48.750;9.078;2023-12-20T11:33:14;5.20;;;1.80;;
2299;SDS011;1158;48.750;9.078;2023-12-20T11:35:41;4.67;;;2.03;;
2299;SDS011;1158;48.750;9.078;2023-12-20T11:38:09;5.67;;;1.70;;
2299;SDS011;1158;48.750;9.078;2023-12-20T11:40:36;4.50;;;1.77;;
2299;SDS011;1158;48.750;9.078;2023-12-20T11:43:03;3.67;;;1.77;;
2299;SDS011;1158;48.750;9.078;2023-12-20T11:45:31;3.57;;;1.53;;
2299;SDS011;1158;48.750;9.078;2023-12-20T11:48:01;6.67;;;2.30;;
2299;SDS011;1158;48.750;9.078;2023-12-20T11:50:28;4.27;;;1.67;;
2299;SDS011;1158;48.750;9.078;2023-12-20T11:52:55;5.37;;;2.00;;
2299;SDS011;1158;48.750;9.078;2023-12-20T11:55:23;8.63;;;2.47;;
2299;SDS011;1158;48.750;9.078;2023-12-20T11:57:50;5.33;;;1.70;;
2299;SDS011;1158;48.750;9.078;2023-12-20T12:00:18;6.33;;;1.73;;
2299;SDS011;1158;48.750;9.078;2023-12-20T12:02:55;5.53;;;1.87;;
2299;SDS011;1158;48.750;9.078;2023-12-20T12:05:23;6.13;;;1.93;;
2299;SDS011;1158;48.750;9.078;2023-12-20T12:07:51;4.70;;;1.97;;
2299;SDS011;1158;48.750;9.078;2023-12-20T12:10:18;4.30;;;2.00;;
2299;SDS011;1158;48.750;9.078;2023-12-20T12:12:45;13.43;;;2.20;;
2299;SDS011;1158;48.750;9.078;2023-12-20T12:15:13;10.17;;;2.47;;
2299;SDS011;1158;48.750;9.078;2023-12-20T12:17:41;11.27;;;2.27;;
2299;SDS011;1158;48.750;9.078;2023-12-20T12:20:08;3.70;;;1.83;;
2299;SDS011;1158;48.750;9.078;2023-12-20T12:22:37;4.60;;;1.67;;
2299;SDS011;1158;48.750;9.078;2023-12-20T12:25:10;8.97;;;1.70;;
2299;SDS011;1158;48.750;9.078;2023-12-20T12:27:39;9.53;;;1.97;;
2299;SDS011;1158;48.750;9.078;2023-12-20T12:30:06;7.57;;;1.90;;
2299;SDS011;1158;48.750;9.078;2023-12-20T12:32:34;9.57;;;2.17;;
2299;SDS011;1158;48.750;9.078;2023-12-20T12:35:02;3.50;;;1.67;;
2299;SDS011;1158;48.750;9.078;2023-12-20T12:37:31;7.40;;;1.67;;
2299;SDS011;1158;48.750;9.078;2023-12-20T12:39:59;5.30;;;2.10;;
2299;SDS011;1158;48.750;9.078;2023-12-20T12:42:26;5.27;;;1.97;;
2299;SDS011;1158;48.750;9.078;2023-12-20T12:44:54;4.93;;;2.60;;
2299;SDS011;1158;48.750;9.078;2023-12-20T12:47:21;3.90;;;1.60;;
2299;SDS011;1158;48.750;9.078;2023-12-20T12:49:49;5.80;;;1.50;;
2299;SDS011;1158;48.750;9.078;2023-12-20T12:52:15;7.23;;;2.10;;
2299;SDS011;1158;48.750;9.078;2023-12-20T12:54:42;5.90;;;2.30;;
2299;SDS011;1158;48.750;9.078;2023-12-20T12:57:11;4.13;;;1.60;;
2299;SDS011;1158;48.750;9.078;2023-12-20T12:59:38;5.30;;;2.10;;
2299;SDS011;1158;48.750;9.078;2023-12-20T13:02:06;4.63;;;1.87;;
2299;SDS011;1158;48.750;9.078;2023-12-20T13:04:33;2.90;;;1.73;;
2299;SDS011;1158;48.750;9.078;2023-12-20T13:07:00;3.27;;;1.30;;
2299;SDS011;1158;48.750;9.078;2023-12-20T13:09:27;3.07;;;1.63;;
2299;SDS011;1158;48.750;9.078;2023-12-20T13:11:54;4.90;;;1.73;;
2299;SDS011;1158;48.750;9.078;2023-12-20T13:14:22;12.27;;;1.73;;
2299;SDS011;1158;48.750;9.078;2023-12-20T13:16:50;2.67;;;1.40;;
2299;SDS011;1158;48.750;9.078;2023-12-20T13:19:17;3.73;;;1.53;;
2299;SDS011;1158;48.750;9.078;2023-12-20T13:21:44;6.93;;;2.13;;
2299;SDS011;1158;48.750;9.078;2023-12-20T13:24:11;9.80;;;1.80;;
2299;SDS011;1158;48.750;9.078;2023-12-20T13:26:38;2.87;;;1.50;;
2299;SDS011;1158;48.750;9.078;2023-12-20T13:29:05;4.70;;;1.90;;
2299;SDS011;1158;48.750;9.078;2023-12-20T13:31:33;10.13;;;1.80;;
2299;SDS011;1158;48.750;9.078;2023-12-20T13:34:01;9.43;;;1.77;;
2299;SDS011;1158;48.750;9.078;2023-12-20T13:36:28;7.20;;;1.63;;
2299;SDS011;1158;48.750;9.078;2023-12-20T13:38:55;6.40;;;1.33;;
2299;SDS011;1158;48.750;9.078;2023-12-20T13:41:22;4.20;;;1.43;;
2299;SDS011;1158;48.750;9.078;2023-12-20T13:43:49;6.73;;;1.90;;
2299;SDS011;1158;48.750;9.078;2023-12-20T13:46:17;4.70;;;1.60;;
2299;SDS011;1158;48.750;9.078;2023-12-20T13:48:45;4.23;;;1.40;;
2299;SDS011;1158;48.750;9.078;2023-12-20T13:51:12;6.73;;;1.60;;
2299;SDS011;1158;48.750;9.078;2023-12-20T13:53:39;5.33;;;1.60;;
2299;SDS011;1158;48.750;9.078;2023-12-20T13:56:06;6.10;;;1.73;;
2299;SDS011;1158;48.750;9.078;2023-12-20T13:58:33;4.87;;;1.50;;
2299;SDS011;1158;48.750;9.078;2023-12-20T14:01:00;6.20;;;1.67;;
2299;SDS011;1158;48.750;9.078;2023-12-20T14:03:27;2.67;;;1.40;;
2299;SDS011;1158;48.750;9.078;2023-12-20T14:05:57;4.10;;;1.60;;
2299;SDS011;1158;48.750;9.078;2023-12-20T14:08:24;8.03;;;1.80;;
2299;SDS011;1158;48.750;9.078;2023-12-20T14:10:52;8.63;;;1.60;;
2299;SDS011;1158;48.750;9.078;2023-12-20T14:13:19;6.80;;;1.57;;
2299;SDS011;1158;48.750;9.078;2023-12-20T14:15:46;2.90;;;1.50;;
2299;SDS011;1158;48.750;9.078;2023-12-20T14:18:14;4.40;;;1.63;;
2299;SDS011;1158;48.750;9.078;2023-12-20T14:20:42;5.70;;;1.73;;
2299;SDS011;1158;48.750;9.078;2023-12-20T14:23:10;5.50;;;1.60;;
2299;SDS011;1158;48.750;9.078;2023-12-20T14:25:39;5.10;;;1.63;;
2299;SDS011;1158;48.750;9.078;2023-12-20T14:28:06;4.47;;;1.80;;
2299;SDS011;1158;48.750;9.078;2023-12-20T14:30:35;5.10;;;1.80;;
2299;SDS011;1158;48.750;9.078;2023-12-20T14:33:03;3.50;;;1.30;;
2299;SDS011;1158;48.750;9.078;2023-12-20T14:35:30;5.33;;;1.50;;
2299;SDS011;1158;48.750;9.078;2023-12-20T14:37:57;3.50;;;1.30;;
2299;SDS011;1158;48.750;9.078;2023-12-20T14:40:26;4.13;;;1.47;;
2299;SDS011;1158;48.750;9.078;2023-12-20T14:42:53;9.93;;;2.50;;
2299;SDS011;1158;48.750;9.078;2023-12-20T14:45:20;5.90;;;1.73;;
2299;SDS011;1158;48.750;9.078;2023-12-20T14:47:47;4.43;;;1.70;;
2299;SDS011;1158;48.750;9.078;2023-12-20T14:50:14;3.20;;;1.43;;
2299;SDS011;1158;48.750;9.078;2023-12-20T14:52:43;5.13;;;1.53;;
2299;SDS011;1158;48.750;9.078;2023-12-20T14:55:11;2.93;;;1.40;;
2299;SDS011;1158;48.750;9.078;2023-12-20T14:57:39;5.03;;;1.63;;
2299;SDS011;1158;48.750;9.078;2023-12-20T15:00:07;9.07;;;1.73;;
2299;SDS011;1158;48.750;9.078;2023-12-20T15:02:34;4.50;;;1.53;;
2299;SDS011;1158;48.750;9.078;2023-12-20T15:05:01;5.47;;;1.60;;
2299;SDS011;1158;48.750;9.078;2023-12-20T15:07:28;3.40;;;1.50;;
2299;SDS011;1158;48.750;9.078;2023-12-20T15:09:55;7.57;;;1.43;;
2299;SDS011;1158;48.750;9.078;2023-12-20T15:12:22;6.27;;;1.73;;
2299;SDS011;1158;48.750;9.078;2023-12-20T15:14:50;8.43;;;1.70;;
2299;SDS011;1158;48.750;9.078;2023-12-20T15:17:17;4.33;;;1.53;;
2299;SDS011;1158;48.750;9.078;2023-12-20T15:19:45;5.80;;;1.67;;